Aéroport de Guadeloupe - Pôle Caraïbes, Guadeloupe

06:05 AST le 31 janvier 2015 (GMT -0400)
Le Raizet | Change Station
CLOSE
Current Station
Aéroport
Location: Le Raizet Airport,
Altitude: 26 ft
Stations météo à proximité

Alt. 26 ft 16.27 °N, 61.53 °W | Updated 5 minutes ago

Clear
Ciel dégagé
66 ° F
Paraît 66 ° F
N
2
Vent Variable Vent de Est

Aujourd'hui
Haut(e) -- | Bas -- ° F
--% Risque de précip.
Hier
Haut(e) -- | Bas -- ° F
Precip. -- pouce
6:36 AM 6:02 PM
Lune gibbeuse croissante, 88% visible
Pression 29.95 pouce
Visibilité 6.2 Miles terrestres
Nuages
Point de rosée 64 ° F
Humidité 94%
Précipitations 0.00 pouce
Profondeur de la couche neigeuse Non disponible.
UV Non disponible.
Pollen Non disponible.
Qualité de l'air Non disponible.
Flu Activity Non disponible.
METAR TFFR 311000Z AUTO 09002KT 9999 NSC 19/18 Q1014

More Conditions Fewer Conditions

Pression 29.95 pouce
Visibilité 6.2 Miles terrestres
Nuages
Point de rosée 64 ° F
Humidité 94%
Précipitations 0.00 pouce
Profondeur de la couche neigeuse Non disponible.
UV Non disponible.
Pollen Non disponible.
Qualité de l'air Non disponible.
Flu Activity Non disponible.
METAR TFFR 311000Z AUTO 09002KT 9999 NSC 19/18 Q1014

More Conditions Fewer Conditions

10-Day Weather Forecast

Almanac

Astronomie

Jan. 31, 2015 Lever Coucher
Temps réel
Crépuscule civil
Crépuscule nautique
Crépuscule astronomique
Lune
Durée de lumière visible
Longueur du jour
Tomorrow will be .
, % of the Moon is Illuminated

Extrêmes aujourd'hui

Country Highs Country Lows

Community

WunderPhotos

Upload Photos

1,792,021 Photos téléchargées !

WunderBlogs® & News

Nearby

Qualité de l'air

  Qualité de l'air Indice de la qualité de l'air Polluant
Not available.

Épaisseur de neige

Station Depth Altitude

Activité sismique

Ville Distance Mag. Time & Date
Minimum magnitude displayed is 2.5.

Températures des eaux côtières

Lieu Température

Stations météo à proximité